createdAt,value
2022-10-13T00:02:19.451Z,11.35
2022-10-13T00:05:22.001Z,12.95
2022-10-13T00:08:26.699Z,10.88
2022-10-13T00:11:30.723Z,9.38
2022-10-13T00:14:32.874Z,6.82
2022-10-13T00:17:38.944Z,9.05
2022-10-13T00:20:46.553Z,7.13
2022-10-13T00:23:49.600Z,9.38
2022-10-13T00:26:52.578Z,13.27
2022-10-13T00:29:54.870Z,13.35
2022-10-13T00:32:56.975Z,8.68
2022-10-13T00:35:59.091Z,7.63
2022-10-13T00:39:01.162Z,10.50
2022-10-13T00:42:04.697Z,8.20
2022-10-13T00:45:11.900Z,11.18
2022-10-13T00:48:14.656Z,8.30
2022-10-13T00:51:21.076Z,7.00
2022-10-13T00:54:25.589Z,12.38
2022-10-13T00:57:28.005Z,5.35
2022-10-13T01:00:31.883Z,10.07
2022-10-13T01:03:34.299Z,9.02
2022-10-13T01:06:36.646Z,7.28
2022-10-13T01:09:38.702Z,8.52
2022-10-13T01:12:48.464Z,8.73
2022-10-13T01:15:56.203Z,11.38
2022-10-13T01:19:18.018Z,10.57
2022-10-13T01:22:56.945Z,11.68
2022-10-13T01:26:28.004Z,11.35
2022-10-13T01:29:48.652Z,9.82
2022-10-13T01:33:17.843Z,10.93
2022-10-13T01:36:35.942Z,10.93
2022-10-13T01:39:44.703Z,12.63
2022-10-13T01:43:02.117Z,9.13
2022-10-13T01:46:15.923Z,11.55
2022-10-13T01:49:23.888Z,8.93
2022-10-13T01:52:32.408Z,6.22
2022-10-13T01:55:34.664Z,6.38
2022-10-13T01:58:38.451Z,8.52
2022-10-13T02:01:49.402Z,12.40
2022-10-13T02:05:16.295Z,12.27
2022-10-13T02:08:30.316Z,10.18
2022-10-13T02:11:32.775Z,7.22
2022-10-13T02:14:38.503Z,17.77
2022-10-13T02:17:41.826Z,6.32
2022-10-13T02:20:46.001Z,7.28
2022-10-13T02:26:51.915Z,6.75
2022-10-13T02:29:58.158Z,12.13
2022-10-13T02:33:01.776Z,6.82
2022-10-13T02:36:04.139Z,9.40
2022-10-13T02:39:10.873Z,6.78
2022-10-13T02:42:14.626Z,7.25
2022-10-13T02:45:16.872Z,7.88
2022-10-13T02:48:19.157Z,9.68
2022-10-13T02:51:21.322Z,8.88
2022-10-13T02:54:23.382Z,5.47
2022-10-13T02:57:25.519Z,10.48
2022-10-13T03:00:27.665Z,13.38
2022-10-13T03:03:29.855Z,17.25
2022-10-13T03:06:31.865Z,11.73
2022-10-13T03:09:34.002Z,10.30
2022-10-13T03:15:40.410Z,4.93
2022-10-13T03:18:42.411Z,10.13
2022-10-13T03:21:44.575Z,16.83
2022-10-13T03:24:46.636Z,10.45
2022-10-13T03:27:48.888Z,12.98
2022-10-13T03:30:51.540Z,10.73
2022-10-13T03:33:53.713Z,11.52
2022-10-13T03:36:55.818Z,11.48
2022-10-13T03:39:57.977Z,11.05
2022-10-13T03:43:00.088Z,9.82
2022-10-13T03:46:04.103Z,14.68
2022-10-13T03:49:06.386Z,9.02
2022-10-13T03:52:08.708Z,10.98
2022-10-13T03:55:10.775Z,12.30
2022-10-13T03:58:12.869Z,8.48
2022-10-13T04:01:15.187Z,10.10
2022-10-13T04:04:17.284Z,10.95
2022-10-13T04:07:19.394Z,8.18
2022-10-13T04:10:21.472Z,10.00
2022-10-13T04:13:23.893Z,16.80
2022-10-13T04:16:28.963Z,12.43
2022-10-13T04:19:31.100Z,13.32
2022-10-13T04:22:33.222Z,10.45
2022-10-13T04:25:39.325Z,11.98
2022-10-13T04:28:41.489Z,12.45
2022-10-13T04:31:44.019Z,8.05
2022-10-13T04:34:46.066Z,15.05
2022-10-13T04:37:48.109Z,13.98
2022-10-13T04:40:50.569Z,8.90
2022-10-13T04:43:53.958Z,12.88
2022-10-13T04:46:56.008Z,15.27
2022-10-13T04:49:58.031Z,12.85
2022-10-13T04:53:00.435Z,15.15
2022-10-13T04:56:05.092Z,15.18
2022-10-13T04:59:07.204Z,9.32
2022-10-13T05:02:10.630Z,14.07
2022-10-13T05:05:12.741Z,8.67
2022-10-13T05:08:14.842Z,19.60
2022-10-13T05:11:17.967Z,9.27
2022-10-13T05:14:20.294Z,18.60
2022-10-13T05:17:22.367Z,16.35
2022-10-13T05:20:25.330Z,14.20
2022-10-13T05:23:27.431Z,9.65
2022-10-13T05:26:32.151Z,13.32
2022-10-13T05:29:34.340Z,11.45
2022-10-13T05:32:36.669Z,7.60
2022-10-13T05:35:38.859Z,12.88
2022-10-13T05:38:41.376Z,11.50
2022-10-13T05:41:43.416Z,16.05
2022-10-13T05:44:45.676Z,16.17
2022-10-13T05:47:51.796Z,12.82
2022-10-13T05:50:55.592Z,13.00
2022-10-13T05:54:21.687Z,13.65
2022-10-13T05:57:41.289Z,13.10
2022-10-13T06:00:45.475Z,12.55
2022-10-13T06:03:49.431Z,11.15
2022-10-13T06:06:51.715Z,15.95
2022-10-13T06:09:53.802Z,9.43
2022-10-13T06:12:55.843Z,16.40
2022-10-13T06:15:57.915Z,17.40
2022-10-13T06:19:01.292Z,9.73
2022-10-13T06:22:03.869Z,11.65
2022-10-13T06:25:07.584Z,15.93
2022-10-13T06:28:09.632Z,8.38
2022-10-13T06:31:12.310Z,11.18
2022-10-13T06:34:18.441Z,17.85
2022-10-13T06:37:26.233Z,23.67
2022-10-13T06:40:29.452Z,13.77
2022-10-13T06:43:38.912Z,9.38
2022-10-13T06:46:42.153Z,18.30
2022-10-13T06:49:47.040Z,15.30
2022-10-13T06:52:49.090Z,22.75
2022-10-13T06:55:52.628Z,15.55
2022-10-13T06:58:54.789Z,12.07
2022-10-13T07:01:56.801Z,9.80
2022-10-13T07:04:58.973Z,17.10
2022-10-13T07:08:01.140Z,12.60
2022-10-13T07:11:15.867Z,10.23
2022-10-13T07:14:19.177Z,14.15
2022-10-13T07:17:22.555Z,12.30
2022-10-13T07:20:26.401Z,13.52
2022-10-13T07:23:28.645Z,9.57
2022-10-13T07:26:33.993Z,8.02
2022-10-13T07:29:36.212Z,8.80
2022-10-13T07:32:39.487Z,7.40
2022-10-13T07:35:41.595Z,14.70
2022-10-13T07:38:44.072Z,14.27
2022-10-13T07:41:50.768Z,5.40
2022-10-13T07:44:53.574Z,8.73
2022-10-13T07:47:57.053Z,14.10
2022-10-13T07:50:59.561Z,6.93
2022-10-13T07:54:01.629Z,6.82
2022-10-13T07:57:04.076Z,8.77
2022-10-13T08:00:07.059Z,8.65
2022-10-13T08:03:09.958Z,7.82
2022-10-13T08:06:13.755Z,9.85
2022-10-13T08:09:16.103Z,9.73
2022-10-13T08:12:18.652Z,11.68
2022-10-13T08:15:21.025Z,6.00
2022-10-13T08:18:23.093Z,10.38
2022-10-13T08:21:53.229Z,5.07
2022-10-13T08:24:50.264Z,11.43
2022-10-13T08:27:54.727Z,9.10
2022-10-13T08:31:00.438Z,7.65
2022-10-13T08:34:03.683Z,8.43
2022-10-13T08:37:17.153Z,10.85
2022-10-13T08:40:21.889Z,8.88
2022-10-13T08:43:26.273Z,8.90
2022-10-13T08:46:37.670Z,13.10
2022-10-13T08:49:42.666Z,10.43
2022-10-13T08:53:02.156Z,11.80
2022-10-13T08:56:20.450Z,10.35
2022-10-13T08:59:22.866Z,14.93
2022-10-13T09:02:30.893Z,10.43
2022-10-13T09:05:55.843Z,7.65
2022-10-13T09:09:01.288Z,11.82
2022-10-13T09:12:04.638Z,12.57
2022-10-13T09:15:10.283Z,10.73
2022-10-13T09:18:14.273Z,12.90
2022-10-13T09:24:27.347Z,9.00
2022-10-13T09:27:41.797Z,10.95
2022-10-13T09:30:48.468Z,7.95
2022-10-13T09:34:18.918Z,5.95
2022-10-13T09:37:26.118Z,14.10
2022-10-13T09:40:31.567Z,11.30
2022-10-13T09:43:47.511Z,10.38
2022-10-13T09:46:53.970Z,11.00
2022-10-13T09:50:21.118Z,7.75
2022-10-13T09:53:26.401Z,7.80
2022-10-13T09:56:39.806Z,6.88
2022-10-13T10:03:07.242Z,8.32
2022-10-13T10:06:15.090Z,7.03
2022-10-13T10:09:22.972Z,13.48
2022-10-13T10:12:30.819Z,7.13
2022-10-13T10:15:53.281Z,8.15
2022-10-13T10:19:15.588Z,7.60
2022-10-13T10:22:25.339Z,8.70
2022-10-13T10:25:47.452Z,5.63
2022-10-13T10:29:07.420Z,10.30
2022-10-13T10:32:34.881Z,10.32
2022-10-13T10:36:17.374Z,8.75
2022-10-13T10:39:44.542Z,9.80
2022-10-13T10:42:55.477Z,7.13
2022-10-13T10:45:59.397Z,7.65
2022-10-13T10:49:23.795Z,9.73
2022-10-13T10:52:56.439Z,9.18
2022-10-13T10:56:12.945Z,8.23
2022-10-13T10:59:40.399Z,6.45
2022-10-13T11:03:15.276Z,6.15
2022-10-13T11:06:17.259Z,10.90
2022-10-13T11:09:42.364Z,14.40
2022-10-13T11:12:58.831Z,16.73
2022-10-13T11:16:35.154Z,11.30
2022-10-13T11:19:42.302Z,9.93
2022-10-13T11:23:06.222Z,12.82
2022-10-13T11:26:29.929Z,12.43
2022-10-13T11:29:44.610Z,9.50
2022-10-13T11:32:56.455Z,17.45
2022-10-13T11:35:58.629Z,16.98
2022-10-13T11:39:19.527Z,9.20
2022-10-13T11:42:49.539Z,16.55
2022-10-13T11:46:14.708Z,10.45
2022-10-13T11:49:28.508Z,11.65
2022-10-13T11:53:17.295Z,13.07
2022-10-13T11:56:22.273Z,11.70
2022-10-13T11:59:37.621Z,10.70
2022-10-13T12:02:49.637Z,9.80
2022-10-13T12:05:52.236Z,7.97
2022-10-13T12:08:54.467Z,8.38
2022-10-13T12:12:02.863Z,9.82
2022-10-13T12:15:28.357Z,12.32
2022-10-13T12:18:36.204Z,10.73
2022-10-13T12:21:51.185Z,11.05
2022-10-13T12:25:02.361Z,9.50
2022-10-13T12:28:04.595Z,10.02
2022-10-13T12:31:06.706Z,9.48
2022-10-13T12:34:20.387Z,12.30
2022-10-13T12:37:32.736Z,8.35
2022-10-13T12:40:35.428Z,14.50
2022-10-13T12:43:41.947Z,9.45
2022-10-13T12:46:44.068Z,13.73
2022-10-13T12:49:46.157Z,17.02
2022-10-13T12:52:52.386Z,10.73
2022-10-13T12:56:00.758Z,18.35
2022-10-13T12:59:03.892Z,20.85
2022-10-13T13:02:24.280Z,17.40
2022-10-13T13:05:34.779Z,11.40
2022-10-13T13:08:36.986Z,8.50
2022-10-13T13:11:39.694Z,10.27
2022-10-13T13:14:51.050Z,10.52
2022-10-13T13:17:59.013Z,16.25
2022-10-13T13:21:02.196Z,8.48
2022-10-13T13:24:15.972Z,10.05
2022-10-13T13:27:32.162Z,13.45
2022-10-13T13:30:34.235Z,11.20
2022-10-13T13:33:36.412Z,11.80
2022-10-13T13:36:39.226Z,10.25
2022-10-13T13:39:41.451Z,8.60
2022-10-13T13:42:43.578Z,6.05
2022-10-13T13:45:46.773Z,8.98
2022-10-13T13:48:49.144Z,7.93
2022-10-13T13:51:51.157Z,8.73
2022-10-13T13:54:53.612Z,9.60
2022-10-13T13:57:56.160Z,7.30
2022-10-13T14:00:59.969Z,11.15
2022-10-13T14:04:03.214Z,5.13
2022-10-13T14:07:05.220Z,6.55
2022-10-13T14:10:08.830Z,4.28
2022-10-13T14:13:10.896Z,6.72
2022-10-13T14:16:17.910Z,8.07
2022-10-13T14:19:19.984Z,4.93
2022-10-13T14:22:22.854Z,7.60
2022-10-13T14:25:25.236Z,6.60
2022-10-13T14:28:27.580Z,6.35
2022-10-13T14:31:30.763Z,10.10
2022-10-13T14:34:33.741Z,12.45
2022-10-13T14:37:36.167Z,12.05
2022-10-13T14:40:42.261Z,12.95
2022-10-13T14:43:44.543Z,13.05
2022-10-13T14:46:46.716Z,13.50
2022-10-13T14:49:48.772Z,17.88
2022-10-13T14:52:50.747Z,14.30
2022-10-13T14:55:53.417Z,13.93
2022-10-13T14:58:58.256Z,15.48
2022-10-13T15:02:00.588Z,14.98
2022-10-13T15:05:04.086Z,25.50
2022-10-13T15:08:06.227Z,20.20
2022-10-13T15:11:08.507Z,29.83
2022-10-13T15:14:10.767Z,13.63
2022-10-13T15:17:15.149Z,22.65
2022-10-13T15:20:17.302Z,21.35
2022-10-13T15:23:20.364Z,21.27
2022-10-13T15:26:22.606Z,17.40
2022-10-13T15:29:24.727Z,19.75
2022-10-13T15:32:30.145Z,18.90
2022-10-13T15:35:33.070Z,13.07
2022-10-13T15:38:35.146Z,14.40
2022-10-13T15:41:37.131Z,13.15
2022-10-13T15:48:01.582Z,10.95
2022-10-13T15:51:13.691Z,14.40
2022-10-13T15:54:16.540Z,11.45
2022-10-13T15:57:18.683Z,9.10
2022-10-13T16:00:20.838Z,12.88
2022-10-13T16:03:29.668Z,13.18
2022-10-13T16:06:33.587Z,12.13
2022-10-13T16:09:37.047Z,11.80
2022-10-13T16:12:39.826Z,13.38
2022-10-13T16:15:42.934Z,10.75
2022-10-13T16:18:45.478Z,11.30
2022-10-13T16:21:47.631Z,11.95
2022-10-13T16:24:49.685Z,12.05
2022-10-13T16:27:51.811Z,13.05
2022-10-13T16:30:54.007Z,13.45
2022-10-13T16:33:56.328Z,15.23
2022-10-13T16:36:58.574Z,14.90
2022-10-13T16:40:00.652Z,9.40
2022-10-13T16:43:02.659Z,15.95
2022-10-13T16:46:08.355Z,6.97
2022-10-13T16:49:11.431Z,10.60
2022-10-13T16:52:13.700Z,8.68
2022-10-13T16:55:15.993Z,22.23
2022-10-13T16:58:18.207Z,5.93
2022-10-13T17:01:21.004Z,11.32
2022-10-13T17:04:23.190Z,5.07
2022-10-13T17:07:25.255Z,6.50
2022-10-13T17:10:28.186Z,8.18
2022-10-13T17:13:34.136Z,7.65
2022-10-13T17:16:36.505Z,7.70
2022-10-13T17:19:38.774Z,6.15
2022-10-13T17:22:41.682Z,9.88
2022-10-13T17:25:43.756Z,9.73
2022-10-13T17:28:46.223Z,9.75
2022-10-13T17:31:48.355Z,11.45
2022-10-13T17:34:50.515Z,9.68
2022-10-13T17:37:54.753Z,6.93
2022-10-13T17:44:02.665Z,18.80
2022-10-13T17:47:04.772Z,12.35
2022-10-13T17:50:07.035Z,13.50
2022-10-13T17:53:09.146Z,10.43
2022-10-13T17:56:15.066Z,16.25
2022-10-13T17:59:18.212Z,9.90
2022-10-13T18:02:21.704Z,9.90
2022-10-13T18:05:23.713Z,7.70
2022-10-13T18:08:26.243Z,7.25
2022-10-13T18:11:28.342Z,8.27
2022-10-13T18:14:30.369Z,2.47
2022-10-13T18:17:35.108Z,3.92
2022-10-13T18:20:39.308Z,9.63
2022-10-13T18:23:42.138Z,4.53
2022-10-13T18:26:44.515Z,5.10
2022-10-13T18:29:46.587Z,15.70
2022-10-13T18:32:48.692Z,4.97
2022-10-13T18:35:50.791Z,4.72
2022-10-13T18:38:55.210Z,5.78
2022-10-13T18:41:57.773Z,2.20
2022-10-13T18:44:59.854Z,4.82
2022-10-13T18:48:01.897Z,4.78
2022-10-13T18:51:09.599Z,10.00
2022-10-13T18:54:12.373Z,4.28
2022-10-13T18:57:14.378Z,2.72
2022-10-13T19:00:16.771Z,5.40
2022-10-13T19:03:18.890Z,3.72
2022-10-13T19:06:27.233Z,6.07
2022-10-13T19:09:30.323Z,3.50
2022-10-13T19:12:32.357Z,2.13
2022-10-13T19:15:34.369Z,2.92
2022-10-13T19:18:36.702Z,4.53
2022-10-13T19:21:39.623Z,1.55
2022-10-13T19:24:41.675Z,3.47
2022-10-13T19:27:43.651Z,2.55
2022-10-13T19:30:46.093Z,3.80
2022-10-13T19:33:50.369Z,1.88
2022-10-13T19:39:58.850Z,1.75
2022-10-13T19:43:00.935Z,3.05
2022-10-13T19:46:06.913Z,2.35
2022-10-13T19:49:09.935Z,1.67
2022-10-13T19:52:12.250Z,1.52
2022-10-13T19:55:20.965Z,7.93
2022-10-13T19:58:26.580Z,11.73
2022-10-13T20:01:40.556Z,3.72
2022-10-13T20:04:53.491Z,1.80
2022-10-13T20:08:28.190Z,7.85
2022-10-13T20:11:48.875Z,2.67
2022-10-13T20:15:18.164Z,0.60
2022-10-13T20:18:21.697Z,2.33
2022-10-13T20:21:35.835Z,1.90
2022-10-13T20:24:37.861Z,1.42
2022-10-13T20:27:40.253Z,2.70
2022-10-13T20:30:42.287Z,0.77
2022-10-13T20:33:47.025Z,1.45
2022-10-13T20:36:51.164Z,7.20
2022-10-13T20:42:56.267Z,3.72
2022-10-13T20:46:07.460Z,1.80
2022-10-13T20:49:11.378Z,1.10
2022-10-13T20:52:14.866Z,0.68
2022-10-13T20:55:16.895Z,2.30
2022-10-13T20:58:18.954Z,0.60
2022-10-13T21:01:22.746Z,2.88
2022-10-13T21:04:24.988Z,1.05
2022-10-13T21:07:28.594Z,1.80
2022-10-13T21:10:31.144Z,1.70
2022-10-13T21:13:33.624Z,1.85
2022-10-13T21:16:37.213Z,0.52
2022-10-13T21:19:45.843Z,0.57
2022-10-13T21:23:02.868Z,0.50
2022-10-13T21:26:21.182Z,1.08
2022-10-13T21:29:29.835Z,3.47
2022-10-13T21:32:32.348Z,0.52
2022-10-13T21:35:36.044Z,3.35
2022-10-13T21:38:41.531Z,1.13
2022-10-13T21:41:50.479Z,3.22
2022-10-13T21:44:52.603Z,0.77
2022-10-13T21:48:01.497Z,5.10
2022-10-13T21:51:23.553Z,1.48
2022-10-13T21:54:26.430Z,1.65
2022-10-13T21:57:28.653Z,0.77
2022-10-13T22:00:31.026Z,1.95
2022-10-13T22:03:33.681Z,1.00
2022-10-13T22:06:36.703Z,0.30
2022-10-13T22:09:38.804Z,0.98
2022-10-13T22:12:41.393Z,0.70
2022-10-13T22:15:44.182Z,6.38
2022-10-13T22:18:47.149Z,1.95
2022-10-13T22:21:50.259Z,2.90
2022-10-13T22:24:52.553Z,1.38
2022-10-13T22:27:55.655Z,3.53
2022-10-13T22:30:57.695Z,1.88
2022-10-13T22:34:01.152Z,0.20
2022-10-13T22:37:03.501Z,0.43
2022-10-13T22:40:06.211Z,0.32
2022-10-13T22:43:08.769Z,0.75
2022-10-13T22:46:11.955Z,0.50
2022-10-13T22:49:14.878Z,0.30
2022-10-13T22:52:16.937Z,0.95
2022-10-13T22:55:19.284Z,0.20
2022-10-13T22:58:21.329Z,0.17
2022-10-13T23:01:24.105Z,0.15
2022-10-13T23:04:26.239Z,0.45
2022-10-13T23:07:29.865Z,0.28
2022-10-13T23:10:31.909Z,0.30
2022-10-13T23:13:33.960Z,0.20
2022-10-13T23:16:36.185Z,0.98
2022-10-13T23:19:38.495Z,0.45
2022-10-13T23:22:40.492Z,1.92
2022-10-13T23:25:43.429Z,1.17
2022-10-13T23:28:47.362Z,0.20
2022-10-13T23:31:49.606Z,0.85
2022-10-13T23:34:51.797Z,0.70
2022-10-13T23:37:53.948Z,0.52
2022-10-13T23:40:56.363Z,0.60
2022-10-13T23:43:58.970Z,3.13
2022-10-13T23:47:01.053Z,1.70
2022-10-13T23:50:03.631Z,0.15
2022-10-13T23:53:05.627Z,0.52
2022-10-13T23:56:09.903Z,0.38
2022-10-13T23:59:11.973Z,0.30
